Terminal Aerodrome Forecast
Issued by NWS Mt. Holly, NJ

Home | Current Version | Previous Version | Text Only | Print | Product List | Glossary On
Versions: 1 2 3 4 5 6 7 8 9 10 11 12 13
000
FTUS41 KPHI 251133
TAFRDG
TAF
KRDG 251133Z 2512/2612 21004KT P6SM BKN200
     FM251600 23010G22KT P6SM FEW050 SCT200
     FM260000 19008KT P6SM SCT200
     FM260600 VRB03KT P6SM BKN200=

USA.gov is the U.S. government's official web portal to all federal, state and local government web resources and services.